Time;durP1;ratioP1;P1;durP2;ratioP2;P2;SDS_P1;SDS_P2;PMS_P1;PMS_P2;Temp;Humidity;BMP_temperature;BMP_pressure;BME280_temperature;BME280_humidity;BME280_pressure;Samples;Min_cycle;Max_cycle;Signal;HPM_P1;HPM_P2
2022/07/08 00:01:41;;;;;;;3.15;1.40;;;;;;;19.82;67.42;100189.08;1719455;82;21941;-79
2022/07/08 00:04:09;;;;;;;5.87;1.30;;;;;;;19.85;67.47;100190.86;1718981;82;20973;-78
2022/07/08 00:06:37;;;;;;;4.53;1.50;;;;;;;19.83;67.50;100193.41;1742760;82;21020;-78
2022/07/08 00:09:03;;;;;;;2.62;1.30;;;;;;;19.81;67.62;100192.78;1733193;82;21486;-78
2022/07/08 00:11:30;;;;;;;2.02;1.40;;;;;;;19.80;67.64;100195.97;1727887;82;21414;-77
2022/07/08 00:13:57;;;;;;;1.57;1.27;;;;;;;19.81;67.64;100195.45;1715896;82;21845;-78
2022/07/08 00:16:23;;;;;;;1.47;1.20;;;;;;;19.83;67.66;100198.27;1723505;82;21057;-78
2022/07/08 00:18:50;;;;;;;3.87;1.50;;;;;;;19.82;67.61;100196.61;1718467;82;21152;-77
2022/07/08 00:21:16;;;;;;;3.33;1.20;;;;;;;19.83;67.65;100204.97;1721848;82;20997;-78
2022/07/08 00:23:43;;;;;;;2.52;1.47;;;;;;;19.84;67.58;100207.96;1732239;80;20950;-78
2022/07/08 00:26:09;;;;;;;3.08;1.22;;;;;;;19.85;67.54;100208.28;1716810;82;21813;-78
2022/07/08 00:28:36;;;;;;;2.12;1.30;;;;;;;19.85;67.47;100211.47;1722041;82;21001;-78
2022/07/08 00:31:04;;;;;;;2.05;1.40;;;;;;;19.85;67.45;100216.33;1717991;81;21020;-78
2022/07/08 00:33:31;;;;;;;1.77;1.25;;;;;;;19.87;67.42;100225.00;1716484;82;21424;-78
2022/07/08 00:35:58;;;;;;;2.62;1.42;;;;;;;19.87;67.41;100226.86;1728790;82;21051;-78
2022/07/08 00:38:24;;;;;;;1.60;1.10;;;;;;;19.88;67.45;100229.86;1715755;82;21990;-78
2022/07/08 00:40:51;;;;;;;1.30;1.20;;;;;;;19.86;67.43;100227.88;1722606;82;20932;-78
2022/07/08 00:43:39;;;;;;;1.67;1.20;;;;;;;19.88;67.41;100229.38;1718298;82;21009;-78
2022/07/08 00:46:04;;;;;;;2.65;1.10;;;;;;;19.88;67.34;100232.05;1741514;82;21526;-78
2022/07/08 00:48:30;;;;;;;1.80;1.25;;;;;;;19.89;67.32;100226.19;1717575;82;20988;-78
2022/07/08 00:50:59;;;;;;;2.15;1.10;;;;;;;19.90;67.30;100231.87;1717609;82;21944;-78
2022/07/08 00:53:27;;;;;;;2.05;1.10;;;;;;;19.88;67.27;100232.05;1717595;82;20892;-78
2022/07/08 00:55:54;;;;;;;1.05;1.00;;;;;;;19.86;67.21;100241.27;1730185;82;21027;-78
2022/07/08 00:58:20;;;;;;;1.70;1.12;;;;;;;19.85;67.18;100232.41;1724580;80;21391;-78
2022/07/08 01:00:47;;;;;;;1.15;1.05;;;;;;;19.86;67.18;100234.58;1754377;81;21004;-78
2022/07/08 01:03:14;;;;;;;3.30;1.10;;;;;;;19.85;67.08;100236.42;1738582;81;21902;-78
2022/07/08 01:05:40;;;;;;;1.90;0.90;;;;;;;19.80;67.01;100236.17;1738706;81;21031;-78
2022/07/08 01:08:08;;;;;;;1.10;0.95;;;;;;;19.73;67.06;100241.94;1753863;81;20977;-78
2022/07/08 01:10:35;;;;;;;1.62;0.90;;;;;;;19.68;67.12;100241.64;1745598;81;21097;-78
2022/07/08 01:13:01;;;;;;;2.45;0.90;;;;;;;19.65;67.27;100238.83;1737069;81;20961;-78
2022/07/08 01:15:28;;;;;;;3.00;1.10;;;;;;;19.60;67.32;100242.58;1740492;81;21955;-78
2022/07/08 01:17:55;;;;;;;2.30;0.90;;;;;;;19.58;67.41;100241.08;1751233;81;20980;-78
2022/07/08 01:20:23;;;;;;;1.65;0.90;;;;;;;19.56;67.52;100241.77;1753423;81;21009;-79
2022/07/08 01:22:49;;;;;;;1.98;0.88;;;;;;;19.51;67.58;100238.80;1738011;81;20940;-78
2022/07/08 01:25:16;;;;;;;1.00;0.88;;;;;;;19.48;67.63;100240.48;1737505;81;21039;-78
2022/07/08 01:27:42;;;;;;;1.82;0.88;;;;;;;19.44;67.67;100246.22;1742645;81;21947;-78
2022/07/08 01:30:10;;;;;;;2.40;1.00;;;;;;;19.40;67.75;100236.06;1755571;81;20930;-78
2022/07/08 01:32:40;;;;;;;2.50;0.90;;;;;;;19.35;67.82;100237.93;1739191;81;20984;-78
2022/07/08 01:35:07;;;;;;;1.22;0.93;;;;;;;19.34;67.97;100242.97;1755668;81;21012;-77
2022/07/08 01:37:33;;;;;;;1.98;1.00;;;;;;;19.30;68.09;100237.66;1738110;81;21546;-78
2022/07/08 01:40:01;;;;;;;0.80;0.80;;;;;;;19.26;68.17;100235.00;1736529;81;22530;-78
2022/07/08 01:42:27;;;;;;;2.33;0.80;;;;;;;19.24;68.27;100235.70;1749200;81;21012;-78
2022/07/08 01:44:54;;;;;;;2.30;0.90;;;;;;;19.22;68.37;100229.70;1744554;81;21044;-80
2022/07/08 01:47:21;;;;;;;0.98;0.88;;;;;;;19.21;68.45;100235.23;1757362;81;20993;-79
2022/07/08 01:49:47;;;;;;;1.30;0.90;;;;;;;19.18;68.58;100228.88;1746601;81;21450;-80
2022/07/08 01:52:14;;;;;;;1.75;1.00;;;;;;;19.14;68.68;100232.44;1741868;81;21965;-79
2022/07/08 01:54:40;;;;;;;1.10;0.95;;;;;;;19.14;68.78;100235.11;1751276;81;20997;-80
2022/07/08 01:57:18;;;;;;;1.32;0.98;;;;;;;19.12;68.82;100231.28;1736896;79;21013;-79
2022/07/08 01:59:46;;;;;;;1.82;0.98;;;;;;;19.13;68.83;100222.23;1739014;82;21557;-79
2022/07/08 02:02:14;;;;;;;3.98;0.98;;;;;;;19.13;68.99;100226.77;1741154;81;20966;-80
2022/07/08 02:04:41;;;;;;;3.12;0.90;;;;;;;19.11;69.11;100223.44;1740021;81;21995;-81
2022/07/08 02:07:08;;;;;;;1.32;0.95;;;;;;;19.10;69.19;100222.58;1750218;81;21436;-79
2022/07/08 02:09:36;;;;;;;1.98;1.00;;;;;;;19.08;69.36;100220.59;1685392;84;21057;-80
2022/07/08 02:12:19;;;;;;;3.17;1.10;;;;;;;19.08;69.46;100222.44;1740233;81;21044;-80
2022/07/08 02:14:51;;;;;;;3.27;1.10;;;;;;;19.07;69.53;100214.92;1686266;84;20997;-80
2022/07/08 02:17:22;;;;;;;4.12;0.95;;;;;;;19.09;69.64;100218.75;1700244;83;21832;-79
2022/07/08 02:19:50;;;;;;;1.87;0.98;;;;;;;19.08;69.75;100222.44;1749501;81;20933;-79
2022/07/08 02:22:17;;;;;;;2.17;1.22;;;;;;;19.08;69.87;100220.59;1739808;81;21007;-81
2022/07/08 02:24:43;;;;;;;2.45;0.90;;;;;;;19.08;69.99;100217.09;1757050;81;21021;-80
2022/07/08 02:27:10;;;;;;;2.25;1.10;;;;;;;19.07;70.10;100214.92;1740380;80;21020;-79
2022/07/08 02:29:36;;;;;;;2.22;1.00;;;;;;;19.07;70.12;100220.27;1668098;86;21845;-79
2022/07/08 02:32:04;;;;;;;3.67;1.25;;;;;;;19.10;70.13;100219.07;1696826;83;20941;-77
2022/07/08 02:34:30;;;;;;;1.30;1.00;;;;;;;19.12;70.20;100225.10;1707773;83;20978;-79
2022/07/08 02:36:56;;;;;;;1.32;1.00;;;;;;;19.14;70.19;100221.73;1670235;83;21014;-79
2022/07/08 02:39:23;;;;;;;1.32;1.00;;;;;;;19.18;70.21;100225.70;1707686;83;20957;-79
2022/07/08 02:41:49;;;;;;;4.65;1.12;;;;;;;19.21;70.14;100229.38;1700127;83;22615;-80
2022/07/08 02:44:16;;;;;;;1.40;1.10;;;;;;;19.26;70.10;100234.17;1703012;82;20915;-79
2022/07/08 02:46:43;;;;;;;1.50;1.10;;;;;;;19.30;69.97;100228.77;1691600;84;21473;-80
2022/07/08 02:49:09;;;;;;;1.30;0.88;;;;;;;19.32;69.82;100230.27;1767951;81;20937;-79
2022/07/08 02:51:36;;;;;;;2.00;1.02;;;;;;;19.36;69.69;100228.05;1756391;81;21414;-81
2022/07/08 02:54:04;;;;;;;1.07;0.95;;;;;;;19.40;69.54;100219.48;1673989;84;21963;-79
2022/07/08 02:56:32;;;;;;;1.12;1.00;;;;;;;19.45;69.37;100221.59;1673134;85;20966;-79
2022/07/08 02:58:59;;;;;;;2.27;1.00;;;;;;;19.49;69.23;100220.71;1659422;84;21510;-80
2022/07/08 03:01:26;;;;;;;6.47;1.00;;;;;;;19.53;69.20;100221.52;1650013;85;21530;-80
2022/07/08 03:03:52;;;;;;;2.02;1.20;;;;;;;19.58;69.12;100208.92;1667092;84;21439;-80
2022/07/08 03:06:19;;;;;;;3.10;0.90;;;;;;;19.65;68.99;100213.88;1666102;84;21954;-79
2022/07/08 03:08:46;;;;;;;1.77;0.90;;;;;;;19.71;68.85;100209.97;1666351;84;21511;-80
2022/07/08 03:11:12;;;;;;;1.35;1.10;;;;;;;19.75;68.50;100215.78;1679831;83;21084;-80
2022/07/08 03:13:40;;;;;;;3.08;1.00;;;;;;;19.78;68.29;100208.70;1675490;84;20988;-80
2022/07/08 03:16:06;;;;;;;3.02;1.30;;;;;;;19.80;68.24;100208.53;1648205;85;21026;-80
2022/07/08 03:18:34;;;;;;;2.47;0.90;;;;;;;19.80;68.12;100204.00;1666994;85;21917;-80
2022/07/08 03:21:03;;;;;;;2.83;1.20;;;;;;;19.79;68.01;100197.50;1646542;85;20946;-80
2022/07/08 03:23:31;;;;;;;1.50;0.90;;;;;;;19.80;67.91;100189.27;1665054;85;20991;-80
2022/07/08 03:25:58;;;;;;;0.90;0.90;;;;;;;19.78;67.83;100185.08;1647368;85;21003;-77
2022/07/08 03:28:25;;;;;;;1.60;0.90;;;;;;;19.76;67.77;100190.64;1660776;85;21043;-77
2022/07/08 03:30:51;;;;;;;6.12;1.20;;;;;;;19.75;67.74;100184.13;1641323;85;21897;-78
2022/07/08 03:33:17;;;;;;;2.12;1.00;;;;;;;19.71;67.64;100185.84;1635294;86;21008;-78
2022/07/08 03:35:44;;;;;;;1.00;0.90;;;;;;;19.71;67.68;100187.70;1671593;85;21068;-80
2022/07/08 03:38:11;;;;;;;1.57;0.90;;;;;;;19.70;67.63;100192.73;1668227;85;21025;-78
2022/07/08 03:43:22;;;;;;;2.90;1.00;;;;;;;19.67;67.58;100198.45;1673910;84;21867;-77
2022/07/08 03:45:49;;;;;;;1.98;1.00;;;;;;;19.66;67.57;100207.50;1668020;84;20968;-77
2022/07/08 03:48:16;;;;;;;1.65;1.00;;;;;;;19.68;67.60;100211.66;1666827;84;21059;-77
2022/07/08 03:50:43;;;;;;;2.42;1.00;;;;;;;19.68;67.57;100210.31;1680939;84;21092;-77
2022/07/08 03:53:09;;;;;;;1.67;1.00;;;;;;;19.69;67.56;100209.83;1673800;84;21111;-78
2022/07/08 03:55:37;;;;;;;3.22;1.10;;;;;;;19.69;67.54;100208.50;1671624;84;21783;-80
2022/07/08 03:58:04;;;;;;;3.47;1.12;;;;;;;19.69;67.53;100211.17;1668680;84;21549;-80
2022/07/08 04:00:31;;;;;;;5.10;1.20;;;;;;;19.66;67.60;100219.56;1725904;82;20967;-80
2022/07/08 04:02:58;;;;;;;1.40;1.05;;;;;;;19.64;67.71;100214.39;1769700;80;20983;-80
2022/07/08 04:05:24;;;;;;;3.42;1.20;;;;;;;19.64;67.81;100212.22;1756231;80;21078;-80
2022/07/08 04:07:50;;;;;;;1.20;1.10;;;;;;;19.68;67.84;100214.84;1748098;80;21939;-80
2022/07/08 04:10:17;;;;;;;5.40;1.45;;;;;;;19.72;67.86;100213.47;1725045;82;21066;-80
2022/07/08 04:12:46;;;;;;;1.95;1.30;;;;;;;19.78;67.82;100215.39;1727810;82;21481;-79
2022/07/08 04:15:13;;;;;;;4.60;1.30;;;;;;;19.86;67.74;100214.47;1683977;82;20973;-78
2022/07/08 04:17:41;;;;;;;2.50;1.30;;;;;;;19.91;67.66;100207.55;1726845;82;21068;-80
2022/07/08 04:20:09;;;;;;;1.37;1.20;;;;;;;19.95;67.48;100199.95;1707933;82;22763;-78
2022/07/08 04:22:36;;;;;;;1.82;1.22;;;;;;;19.96;67.40;100205.12;1730678;82;21007;-77
2022/07/08 04:25:03;;;;;;;1.32;1.10;;;;;;;19.98;67.42;100203.11;1685873;83;21418;-78
2022/07/08 04:27:29;;;;;;;1.55;1.02;;;;;;;20.01;67.49;100202.73;1736492;82;20967;-78
2022/07/08 04:29:56;;;;;;;2.33;1.10;;;;;;;20.05;67.46;100208.54;1713897;83;21021;-78
2022/07/08 04:32:23;;;;;;;1.80;1.30;;;;;;;20.07;67.54;100205.16;1713755;82;21855;-81
2022/07/08 04:34:51;;;;;;;2.67;1.32;;;;;;;20.10;67.48;100204.80;1725134;82;21670;-79
2022/07/08 04:37:18;;;;;;;4.03;1.20;;;;;;;20.12;67.29;100208.62;1713211;82;21065;-78
2022/07/08 04:43:33;;;;;;;2.75;1.35;;;;;;;20.19;67.08;100200.16;1714784;82;21444;-78
2022/07/08 04:46:00;;;;;;;2.45;1.10;;;;;;;20.22;66.55;100201.12;1708702;82;21950;-82
2022/07/08 04:48:27;;;;;;;3.70;1.22;;;;;;;20.23;66.52;100200.09;1728260;82;21115;-80
2022/07/08 04:50:54;;;;;;;3.55;1.32;;;;;;;20.25;66.59;100198.88;1746316;82;21068;-79
2022/07/08 04:53:21;;;;;;;3.70;1.40;;;;;;;20.30;66.62;100197.81;1747673;80;21062;-79
2022/07/08 04:55:48;;;;;;;2.10;1.30;;;;;;;20.34;66.36;100198.26;1750035;80;20986;-80
2022/07/08 04:58:15;;;;;;;2.27;1.10;;;;;;;20.37;66.06;100203.27;1732389;80;22687;-75
2022/07/08 05:00:42;;;;;;;2.45;1.40;;;;;;;20.38;66.01;100198.22;1707204;82;21086;-86
2022/07/08 05:03:10;;;;;;;1.75;1.27;;;;;;;20.39;66.05;100198.53;1698792;83;21045;-72
2022/07/08 05:05:36;;;;;;;1.30;1.20;;;;;;;20.44;66.13;100194.79;1703602;83;21662;-77
2022/07/08 05:08:04;;;;;;;2.40;2.08;;;;;;;20.52;66.03;100195.19;1701311;83;21126;-79
2022/07/08 05:10:30;;;;;;;3.90;2.25;;;;;;;20.57;65.46;100198.97;1700651;83;22307;-77
2022/07/08 05:12:57;;;;;;;2.67;1.67;;;;;;;20.58;65.20;100196.60;1697974;83;21059;-75
2022/07/08 05:15:24;;;;;;;14.43;12.95;;;;;;;20.62;65.33;100201.06;1695648;83;21043;-75
2022/07/08 05:17:52;;;;;;;6.03;4.35;;;;;;;20.67;65.17;100195.97;1695310;82;21162;-71
2022/07/08 05:20:19;;;;;;;3.22;1.72;;;;;;;20.72;65.01;100195.38;1702385;83;21012;-81
2022/07/08 05:22:46;;;;;;;4.37;1.50;;;;;;;20.77;64.97;100199.16;1697071;83;21882;-79
2022/07/08 05:25:12;;;;;;;2.37;1.25;;;;;;;20.87;65.13;100205.55;1701032;83;21749;-81
2022/07/08 05:27:40;;;;;;;1.72;1.40;;;;;;;20.96;64.90;100196.85;1702486;83;21107;-77
2022/07/08 05:30:09;;;;;;;2.55;1.52;;;;;;;21.01;64.43;100210.52;1696770;83;22277;-74
2022/07/08 05:32:37;;;;;;;2.30;1.50;;;;;;;21.01;63.99;100204.62;1708448;83;20986;-74
2022/07/08 05:35:06;;;;;;;3.52;1.60;;;;;;;21.01;64.09;100208.66;1700339;83;21822;-74
2022/07/08 05:37:34;;;;;;;2.10;1.30;;;;;;;21.07;63.96;100205.20;1704987;83;20965;-75
2022/07/08 05:40:01;;;;;;;2.60;1.50;;;;;;;21.14;63.88;100207.95;1703715;83;20976;-76
2022/07/08 05:42:27;;;;;;;2.15;1.40;;;;;;;21.21;63.71;100205.30;1716354;83;21000;-76
2022/07/08 05:44:53;;;;;;;2.37;1.55;;;;;;;21.25;63.64;100193.16;1702739;83;20979;-75
2022/07/08 05:47:20;;;;;;;2.02;1.50;;;;;;;21.28;63.52;100194.13;1708758;83;22317;-74
2022/07/08 05:49:47;;;;;;;1.70;1.40;;;;;;;21.32;63.45;100196.73;1698775;83;21087;-75
2022/07/08 05:52:13;;;;;;;3.25;1.50;;;;;;;21.38;63.64;100200.82;1688867;83;21460;-73
2022/07/08 05:54:45;;;;;;;3.02;1.67;;;;;;;21.48;63.50;100204.50;1692547;83;21328;-74
2022/07/08 05:57:09;;;;;;;3.77;1.62;;;;;;;21.56;62.82;100201.66;1695354;82;20952;-74
2022/07/08 05:59:36;;;;;;;2.83;1.60;;;;;;;21.56;62.58;100209.73;1721365;82;22374;-81
2022/07/08 06:02:03;;;;;;;1.70;1.40;;;;;;;21.55;62.39;100206.73;1686320;83;20981;-81
2022/07/08 06:04:30;;;;;;;4.28;1.62;;;;;;;21.54;62.43;100206.41;1737157;82;21023;-84
2022/07/08 06:06:57;;;;;;;4.62;1.55;;;;;;;21.56;62.56;100211.07;1695635;83;21028;-80
2022/07/08 06:09:24;;;;;;;2.70;1.45;;;;;;;21.59;62.24;100213.35;1719571;82;21378;-77
2022/07/08 06:11:51;;;;;;;2.20;1.52;;;;;;;21.61;62.26;100203.75;1714201;83;22538;-78
2022/07/08 06:14:19;;;;;;;1.87;1.50;;;;;;;21.65;62.38;100205.03;1743786;82;21450;-85
2022/07/08 06:16:48;;;;;;;2.40;1.50;;;;;;;21.73;62.25;100209.42;1712913;82;21101;-77
2022/07/08 06:19:17;;;;;;;3.98;2.62;;;;;;;21.76;62.12;100200.95;1714375;83;21035;-77
2022/07/08 06:21:44;;;;;;;3.85;2.60;;;;;;;21.80;62.28;100206.23;1687468;82;20970;-77
2022/07/08 06:24:10;;;;;;;4.08;2.10;;;;;;;21.86;62.13;100203.59;1714598;83;21890;-77
2022/07/08 06:26:38;;;;;;;4.05;2.05;;;;;;;21.94;62.20;100202.08;1684293;83;21069;-78
2022/07/08 06:29:05;;;;;;;2.55;1.72;;;;;;;22.10;61.95;100202.78;1714203;83;21046;-80
2022/07/08 06:31:33;;;;;;;6.53;1.60;;;;;;;22.22;61.59;100198.50;1684277;85;21312;-80
2022/07/08 06:34:01;;;;;;;2.05;1.50;;;;;;;22.31;61.27;100199.16;1714163;82;21003;-77
2022/07/08 06:36:27;;;;;;;1.82;1.40;;;;;;;22.38;61.02;100194.59;1690885;82;21917;-79
2022/07/08 06:38:54;;;;;;;2.27;1.40;;;;;;;22.43;60.87;100198.35;1715095;82;21047;-76
2022/07/08 06:41:21;;;;;;;2.92;1.80;;;;;;;22.48;60.91;100198.56;1740781;81;21354;-77
2022/07/08 06:43:47;;;;;;;2.08;1.40;;;;;;;22.57;60.90;100192.47;1742987;82;21712;-76
2022/07/08 06:46:14;;;;;;;6.62;1.70;;;;;;;22.69;60.68;100193.55;1725281;82;20974;-76
2022/07/08 06:48:41;;;;;;;2.55;1.50;;;;;;;22.77;60.19;100194.67;1709332;82;21988;-76
2022/07/08 06:51:07;;;;;;;3.55;1.50;;;;;;;22.87;59.67;100188.91;1743745;82;20978;-73
2022/07/08 06:56:19;;;;;;;4.08;1.60;;;;;;;22.95;58.99;100181.98;1721829;82;21055;-71
2022/07/08 06:58:45;;;;;;;3.22;1.67;;;;;;;23.00;59.00;100178.68;1698043;82;20997;-71
2022/07/08 07:01:12;;;;;;;3.80;1.75;;;;;;;23.06;58.98;100185.39;1723426;82;22412;-71
2022/07/08 07:03:39;;;;;;;2.72;1.55;;;;;;;23.13;58.56;100179.49;1691059;83;21085;-72
2022/07/08 07:06:09;;;;;;;3.92;1.70;;;;;;;23.14;58.50;100187.05;1722079;82;21123;-73
2022/07/08 07:08:37;;;;;;;2.70;1.70;;;;;;;23.16;58.30;100176.89;1697560;82;21110;-74
2022/07/08 07:11:04;;;;;;;2.62;1.50;;;;;;;23.22;57.86;100182.80;1736655;82;21009;-72
2022/07/08 07:13:30;;;;;;;2.42;1.95;;;;;;;23.28;57.94;100172.55;1713729;82;21788;-73
2022/07/08 07:15:57;;;;;;;2.95;1.82;;;;;;;23.34;57.39;100162.78;1688160;83;21025;-74
2022/07/08 07:18:25;;;;;;;2.00;1.52;;;;;;;23.37;57.17;100172.64;1727956;82;20971;-76
2022/07/08 07:20:52;;;;;;;4.70;1.62;;;;;;;23.49;57.49;100173.34;1701823;83;20985;-81
2022/07/08 07:23:18;;;;;;;4.12;1.60;;;;;;;23.61;57.22;100169.80;1700559;83;21078;-77
2022/07/08 07:25:45;;;;;;;2.10;1.80;;;;;;;23.71;57.24;100172.05;1747456;82;22505;-77
2022/07/08 07:28:11;;;;;;;2.27;1.60;;;;;;;23.86;57.14;100174.51;1750333;80;20991;-77
2022/07/08 07:30:38;;;;;;;4.28;1.70;;;;;;;23.97;56.97;100164.39;1717734;82;21042;-77
2022/07/08 07:33:05;;;;;;;6.90;1.90;;;;;;;24.08;56.82;100175.03;1718238;82;21102;-89
2022/07/08 07:35:32;;;;;;;3.22;1.70;;;;;;;24.13;56.07;100167.14;1726207;82;21003;-80
2022/07/08 07:37:59;;;;;;;3.00;2.10;;;;;;;24.07;56.23;100168.81;1697719;83;22019;-81
2022/07/08 07:40:26;;;;;;;2.98;2.10;;;;;;;24.01;56.04;100172.87;1718557;82;21046;-81
2022/07/08 07:42:53;;;;;;;2.58;2.15;;;;;;;23.92;56.28;100171.77;1743505;80;20953;-76
2022/07/08 07:45:20;;;;;;;4.37;1.85;;;;;;;23.90;56.08;100166.28;1769156;80;21141;-82
2022/07/08 07:47:47;;;;;;;5.65;1.80;;;;;;;23.89;56.12;100172.72;1750000;80;20991;-84
2022/07/08 07:50:14;;;;;;;6.60;1.72;;;;;;;23.92;56.39;100171.77;1714129;82;21835;-79
2022/07/08 07:52:41;;;;;;;4.65;1.90;;;;;;;23.98;56.22;100166.88;1713480;83;21014;-81
2022/07/08 07:55:09;;;;;;;2.67;1.70;;;;;;;24.05;56.13;100172.77;1714411;82;21042;-83
2022/07/08 07:57:36;;;;;;;2.40;1.80;;;;;;;24.10;55.74;100175.11;1710202;82;21339;-83
2022/07/08 08:00:06;;;;;;;4.62;1.90;;;;;;;24.19;55.96;100178.39;1679941;83;21247;-82
2022/07/08 08:02:35;;;;;;;5.20;1.92;;;;;;;24.35;55.68;100168.48;1730791;82;22582;-83
2022/07/08 08:05:03;;;;;;;1.92;1.70;;;;;;;24.51;55.24;100173.38;1714319;83;21131;-82
2022/07/08 08:07:30;;;;;;;3.10;1.80;;;;;;;24.61;55.41;100173.39;1714601;82;20996;-83
2022/07/08 08:09:57;;;;;;;2.30;2.10;;;;;;;24.76;55.07;100169.88;1713880;82;21001;-82
2022/07/08 08:12:25;;;;;;;4.92;2.00;;;;;;;24.88;54.88;100169.98;1714308;83;21510;-82
2022/07/08 08:14:51;;;;;;;3.22;1.70;;;;;;;24.86;54.06;100172.91;1714286;83;21925;-83
2022/07/08 08:17:18;;;;;;;2.45;2.00;;;;;;;24.75;54.36;100177.67;1718061;82;21081;-83
2022/07/08 08:19:45;;;;;;;4.22;1.87;;;;;;;24.73;54.26;100174.38;1729228;81;21509;-82
2022/07/08 08:22:11;;;;;;;1.98;1.60;;;;;;;24.79;54.66;100166.20;1723893;82;21410;-82
2022/07/08 08:24:37;;;;;;;10.93;2.08;;;;;;;24.95;54.66;100172.11;1684225;83;21051;-83
2022/07/08 08:27:04;;;;;;;3.30;1.80;;;;;;;25.11;53.78;100170.25;1715623;82;22557;-83
2022/07/08 08:29:31;;;;;;;5.12;1.67;;;;;;;25.21;53.76;100172.45;1726964;82;20941;-82
2022/07/08 08:31:58;;;;;;;1.98;1.67;;;;;;;25.31;53.76;100156.02;1726774;82;20984;-82
2022/07/08 08:34:25;;;;;;;4.15;2.00;;;;;;;25.37;53.19;100153.75;1745450;82;21110;-83
2022/07/08 08:36:51;;;;;;;3.17;1.80;;;;;;;25.42;53.04;100157.15;1730227;82;20984;-83
2022/07/08 08:39:18;;;;;;;6.42;2.10;;;;;;;25.45;52.89;100160.75;1716127;82;21947;-82
2022/07/08 08:41:44;;;;;;;2.62;2.10;;;;;;;25.49;52.76;100161.14;1716739;82;21075;-83
2022/07/08 08:44:11;;;;;;;5.30;2.45;;;;;;;25.54;52.68;100159.41;1693372;83;21363;-83
2022/07/08 08:46:38;;;;;;;5.08;2.25;;;;;;;25.63;52.87;100158.05;1693807;82;21550;-83
2022/07/08 08:49:04;;;;;;;5.47;2.25;;;;;;;25.82;52.99;100158.91;1716204;82;21048;-82
2022/07/08 08:51:34;;;;;;;2.87;2.00;;;;;;;26.03;52.08;100156.25;1715756;83;21907;-82
2022/07/08 08:54:03;;;;;;;4.83;1.95;;;;;;;26.07;52.00;100156.11;1684790;83;20948;-81
2022/07/08 08:56:31;;;;;;;8.33;2.37;;;;;;;26.06;51.78;100153.11;1715948;82;21004;-83
2022/07/08 08:58:57;;;;;;;4.80;2.30;;;;;;;25.98;51.74;100153.94;1716229;80;21056;-83
2022/07/08 09:01:24;;;;;;;4.03;2.22;;;;;;;25.82;51.93;100155.37;1695076;83;21027;-82
2022/07/08 09:03:50;;;;;;;6.08;2.20;;;;;;;25.66;52.35;100149.48;1725809;81;21884;-83
2022/07/08 09:06:16;;;;;;;5.03;2.20;;;;;;;25.63;53.11;100149.94;1725823;83;20991;-83
2022/07/08 09:08:43;;;;;;;5.72;2.55;;;;;;;25.69;52.96;100150.40;1725766;81;20960;-83
2022/07/08 09:11:11;;;;;;;3.33;2.37;;;;;;;25.65;52.84;100146.48;1726705;81;20947;-83
2022/07/08 09:13:38;;;;;;;3.17;2.20;;;;;;;25.67;53.57;100150.30;1726152;81;21004;-83
2022/07/08 09:16:05;;;;;;;3.65;2.20;;;;;;;25.77;53.46;100147.95;1704670;83;21755;-82
2022/07/08 09:18:41;;;;;;;5.47;2.12;;;;;;;25.92;53.67;100148.38;1748454;81;20968;-82
2022/07/08 09:21:08;;;;;;;3.77;2.30;;;;;;;26.14;52.99;100148.70;1755153;81;20999;-82
2022/07/08 09:23:38;;;;;;;3.77;2.27;;;;;;;26.26;52.63;100154.19;1722505;81;20960;-82
2022/07/08 09:26:07;;;;;;;3.62;2.12;;;;;;;26.35;51.89;100147.39;1755568;81;21632;-83
2022/07/08 09:28:41;;;;;;;2.92;2.08;;;;;;;26.39;51.94;100145.89;1731319;81;21950;-83
2022/07/08 09:31:13;;;;;;;2.47;2.10;;;;;;;26.48;51.71;100145.86;1755947;80;21535;-82
2022/07/08 09:33:40;;;;;;;2.50;2.17;;;;;;;26.59;51.66;100149.66;1735006;81;20955;-82
2022/07/08 09:36:08;;;;;;;4.97;2.40;;;;;;;26.68;50.90;100137.95;1722416;83;21785;-82
2022/07/08 09:38:39;;;;;;;4.30;2.20;;;;;;;26.74;50.84;100134.33;1722009;82;21011;-82
2022/07/08 09:41:12;;;;;;;5.62;2.08;;;;;;;26.84;50.92;100131.86;1755651;80;21868;-82
2022/07/08 09:43:45;;;;;;;5.87;2.15;;;;;;;26.94;50.21;100129.92;1755212;80;21440;-83
2022/07/08 09:46:11;;;;;;;4.53;2.12;;;;;;;27.01;50.80;100131.44;1725498;83;20964;-82
2022/07/08 09:48:38;;;;;;;3.58;2.47;;;;;;;27.21;50.88;100128.39;1725515;81;20999;-82
2022/07/08 09:51:08;;;;;;;2.98;2.10;;;;;;;27.48;50.10;100124.66;1725609;81;21109;-84
2022/07/08 09:53:34;;;;;;;2.60;2.08;;;;;;;27.73;49.05;100129.84;1735464;81;21944;-82
2022/07/08 09:56:01;;;;;;;3.33;2.33;;;;;;;27.91;48.89;100124.77;1725449;81;20932;-82
2022/07/08 09:58:30;;;;;;;3.60;1.98;;;;;;;28.13;47.81;100125.73;1748405;80;20976;-82
2022/07/08 10:00:57;;;;;;;4.67;2.40;;;;;;;28.33;47.01;100123.95;1750929;79;21569;-82
2022/07/08 10:03:24;;;;;;;3.42;2.35;;;;;;;28.46;45.47;100118.20;1724546;81;21423;-82
2022/07/08 10:05:51;;;;;;;4.12;2.10;;;;;;;28.43;45.90;100124.13;1723915;83;21832;-83
2022/07/08 10:08:18;;;;;;;2.77;2.27;;;;;;;28.54;46.64;100122.95;1724019;81;20992;-83
2022/07/08 10:10:46;;;;;;;5.90;2.20;;;;;;;28.71;46.80;100126.50;1723944;83;20956;-83
2022/07/08 10:13:14;;;;;;;4.72;2.47;;;;;;;28.89;46.18;100120.84;1724308;83;20952;-82
2022/07/08 10:15:41;;;;;;;4.33;2.02;;;;;;;29.05;45.49;100122.73;1692044;84;21019;-82
2022/07/08 10:18:31;;;;;;;2.70;2.50;;;;;;;29.22;44.66;100117.78;1704502;83;21824;-83
2022/07/08 10:20:58;;;;;;;4.78;2.45;;;;;;;29.29;44.85;100117.90;1674535;85;21128;-83
2022/07/08 10:23:35;;;;;;;4.70;2.22;;;;;;;29.37;44.04;100113.92;1650187;85;20964;-83
2022/07/08 10:26:02;;;;;;;5.22;2.37;;;;;;;29.26;44.16;100114.87;1679617;84;21015;-79
2022/07/08 10:28:35;;;;;;;3.90;2.40;;;;;;;29.34;45.09;100112.54;1680107;84;21035;-79
2022/07/08 10:31:03;;;;;;;5.65;2.50;;;;;;;29.56;44.70;100117.20;1678708;84;21966;-79
2022/07/08 10:33:31;;;;;;;4.00;2.60;;;;;;;29.66;43.48;100113.78;1650734;85;20972;-79
2022/07/08 10:36:08;;;;;;;4.35;2.30;;;;;;;29.67;44.31;100112.70;1692727;84;21431;-79
2022/07/08 10:38:38;;;;;;;2.83;2.55;;;;;;;29.72;44.47;100105.40;1691035;84;21565;-78
2022/07/08 10:41:13;;;;;;;3.02;2.40;;;;;;;29.92;44.37;100102.12;1684589;84;21059;-78
2022/07/08 10:43:54;;;;;;;5.17;2.50;;;;;;;30.21;43.32;100110.89;1681650;84;21979;-80
2022/07/08 10:46:26;;;;;;;3.67;2.55;;;;;;;30.34;43.63;100101.47;1749181;81;20964;-80
2022/07/08 10:49:00;;;;;;;3.22;2.37;;;;;;;30.34;43.63;100101.47;1678402;84;21003;-80
2022/07/08 10:51:37;;;;;;;4.65;2.30;;;;;;;30.55;43.87;100101.92;1706584;84;21109;-78
2022/07/08 10:54:05;;;;;;;4.42;2.50;;;;;;;30.75;42.13;100102.11;1706171;84;21095;-79
2022/07/08 10:57:02;;;;;;;3.55;2.70;;;;;;;30.87;42.65;100098.37;1691740;82;22830;-77
2022/07/08 10:59:33;;;;;;;5.05;2.60;;;;;;;31.11;42.32;100106.45;1681947;84;21094;-77
2022/07/08 11:02:13;;;;;;;3.50;2.40;;;;;;;31.32;41.18;100115.60;1674240;84;21154;-78
2022/07/08 11:04:46;;;;;;;3.67;2.52;;;;;;;31.32;40.89;100106.87;1636247;84;21127;-80
2022/07/08 11:07:29;;;;;;;2.90;2.50;;;;;;;31.36;41.26;100105.78;1652601;86;21531;-81
2022/07/08 11:10:09;;;;;;;4.92;2.90;;;;;;;31.54;40.17;100105.88;1664327;84;21881;-81
2022/07/08 11:12:38;;;;;;;5.05;2.37;;;;;;;31.62;40.29;100104.81;1655152;85;21039;-79
2022/07/08 11:15:16;;;;;;;4.70;2.70;;;;;;;31.69;40.13;100103.22;1740987;82;21442;-81
2022/07/08 11:17:43;;;;;;;4.47;3.12;;;;;;;31.80;39.98;100100.82;1691693;84;21105;-79
2022/07/08 11:20:15;;;;;;;4.12;2.60;;;;;;;31.92;40.04;100100.58;1666599;84;21576;-77
2022/07/08 11:22:44;;;;;;;4.67;2.60;;;;;;;32.09;38.64;100094.88;1669975;84;22537;-79
2022/07/08 11:25:14;;;;;;;3.30;2.70;;;;;;;32.02;39.05;100097.05;1715161;83;21743;-82
2022/07/08 11:27:42;;;;;;;3.00;2.70;;;;;;;32.03;39.20;100095.95;1650638;85;21059;-79
2022/07/08 11:30:12;;;;;;;3.40;2.58;;;;;;;32.15;38.71;100089.16;1715720;82;21027;-80
2022/07/08 11:32:38;;;;;;;4.83;2.70;;;;;;;32.33;38.66;100089.22;1664081;84;21040;-80
2022/07/08 11:35:06;;;;;;;4.55;2.52;;;;;;;32.40;37.89;100084.28;1663645;84;21976;-83
2022/07/08 11:37:42;;;;;;;3.90;2.80;;;;;;;32.38;37.94;100081.55;1635967;86;21174;-83